Time;durP1;ratioP1;P1;durP2;ratioP2;P2;SDS_P1;SDS_P2;PMS_P1;PMS_P2;Temp;Humidity;BMP_temperature;BMP_pressure;BME280_temperature;BME280_humidity;BME280_pressure;Samples;Min_cycle;Max_cycle;Signal;HPM_P1;HPM_P2
2022/04/06 00:01:42;;;;;;;40.70;11.00;;;;;;;;;;5066950;28;20023;-74
2022/04/06 00:04:08;;;;;;;58.75;13.27;;;;;;;;;;5044682;28;20032;-72
2022/04/06 00:06:35;;;;;;;33.40;8.90;;;;;;;;;;5054959;28;20028;-73
2022/04/06 00:09:01;;;;;;;42.20;10.38;;;;;;;;;;5043587;28;20451;-73
2022/04/06 00:11:27;;;;;;;39.15;9.90;;;;;;;;;;5057684;28;20091;-74
2022/04/06 00:13:54;;;;;;;38.38;10.00;;;;;;;;;;5061373;28;20025;-73
2022/04/06 00:16:20;;;;;;;48.03;9.75;;;;;;;;;;5061677;28;20032;-73
2022/04/06 00:18:46;;;;;;;45.28;12.05;;;;;;;;;;5041857;28;20032;-73
2022/04/06 00:21:12;;;;;;;43.58;12.27;;;;;;;;;;5063505;28;20063;-72
2022/04/06 00:23:38;;;;;;;42.35;12.68;;;;;;;;;;5040943;28;20035;-75
2022/04/06 00:26:04;;;;;;;51.17;12.27;;;;;;;;;;5043312;28;20447;-72
2022/04/06 00:28:31;;;;;;;48.53;12.43;;;;;;;;;;5040755;28;20037;-73
2022/04/06 00:30:57;;;;;;;49.63;12.73;;;;;;;;;;5061523;28;20029;-71
2022/04/06 00:33:23;;;;;;;48.80;11.57;;;;;;;;;;5035845;28;20907;-73
2022/04/06 00:35:50;;;;;;;46.45;13.07;;;;;;;;;;5057722;28;20036;-73
2022/04/06 00:38:17;;;;;;;45.35;12.05;;;;;;;;;;5057385;28;20036;-74
2022/04/06 00:40:43;;;;;;;49.13;13.35;;;;;;;;;;5036790;28;20545;-74
2022/04/06 00:43:10;;;;;;;37.65;12.63;;;;;;;;;;5052205;28;20025;-73
2022/04/06 00:45:38;;;;;;;38.35;13.05;;;;;;;;;;5052968;28;20157;-74
2022/04/06 00:48:04;;;;;;;43.65;14.30;;;;;;;;;;5065132;28;20120;-74
2022/04/06 00:50:30;;;;;;;52.25;14.93;;;;;;;;;;5058378;28;20052;-74
2022/04/06 00:52:57;;;;;;;45.78;13.00;;;;;;;;;;5056163;28;20517;-74
2022/04/06 00:55:31;;;;;;;46.15;14.18;;;;;;;;;;5040830;28;20481;-73
2022/04/06 00:57:58;;;;;;;37.35;13.70;;;;;;;;;;5058487;28;20021;-74
2022/04/06 01:00:24;;;;;;;45.45;13.05;;;;;;;;;;5035451;28;20041;-74
2022/04/06 01:02:50;;;;;;;42.63;12.75;;;;;;;;;;5058177;28;20028;-73
2022/04/06 01:05:16;;;;;;;38.20;12.40;;;;;;;;;;5038649;28;20021;-73
2022/04/06 01:07:43;;;;;;;40.78;12.55;;;;;;;;;;5056449;28;20155;-74
2022/04/06 01:10:09;;;;;;;43.65;13.43;;;;;;;;;;5045652;28;20119;-74
2022/04/06 01:12:35;;;;;;;46.00;11.60;;;;;;;;;;5055244;28;20041;-72
2022/04/06 01:15:01;;;;;;;44.28;11.60;;;;;;;;;;5038337;28;20041;-73
2022/04/06 01:17:34;;;;;;;35.95;11.32;;;;;;;;;;5056514;28;20029;-75
2022/04/06 01:20:00;;;;;;;48.53;13.70;;;;;;;;;;5061417;28;20035;-74
2022/04/06 01:22:27;;;;;;;38.17;11.90;;;;;;;;;;5061944;28;20029;-73
2022/04/06 01:24:53;;;;;;;48.47;12.98;;;;;;;;;;5037892;28;20025;-75
2022/04/06 01:27:19;;;;;;;46.00;12.10;;;;;;;;;;5060908;28;20025;-74
2022/04/06 01:29:46;;;;;;;46.20;11.48;;;;;;;;;;5038486;28;20029;-74
2022/04/06 01:32:13;;;;;;;39.22;11.98;;;;;;;;;;5035383;28;20029;-73
2022/04/06 01:34:40;;;;;;;32.17;9.85;;;;;;;;;;5064717;28;20013;-73
2022/04/06 01:37:06;;;;;;;41.03;11.75;;;;;;;;;;5045355;28;20570;-73
2022/04/06 01:39:34;;;;;;;41.55;11.23;;;;;;;;;;5057285;28;20170;-73
2022/04/06 01:42:01;;;;;;;35.78;9.00;;;;;;;;;;5058631;28;20029;-73
2022/04/06 01:44:27;;;;;;;39.28;10.55;;;;;;;;;;5065395;28;20044;-72
2022/04/06 01:46:53;;;;;;;36.20;10.45;;;;;;;;;;5068504;28;20119;-74
2022/04/06 01:52:13;;;;;;;29.40;8.75;;;;;;;;;;5043343;28;20508;-75
2022/04/06 01:54:39;;;;;;;33.72;9.32;;;;;;;;;;5042257;28;20029;-74
2022/04/06 01:57:05;;;;;;;29.48;8.38;;;;;;;;;;5045494;28;20473;-73
2022/04/06 01:59:31;;;;;;;34.22;9.35;;;;;;;;;;5068666;28;20540;-75
2022/04/06 02:01:57;;;;;;;36.72;10.20;;;;;;;;;;5044317;28;20033;-73
2022/04/06 02:04:23;;;;;;;32.10;9.52;;;;;;;;;;5066472;28;20033;-75
2022/04/06 02:06:50;;;;;;;40.42;9.15;;;;;;;;;;5060331;28;20021;-73
2022/04/06 02:09:16;;;;;;;31.00;7.95;;;;;;;;;;5065179;28;20344;-72
2022/04/06 02:11:44;;;;;;;41.40;10.38;;;;;;;;;;5059051;28;20410;-74
2022/04/06 02:14:10;;;;;;;29.58;7.55;;;;;;;;;;5056537;28;20086;-74
2022/04/06 02:16:37;;;;;;;28.23;7.50;;;;;;;;;;5049344;28;20355;-76
2022/04/06 02:19:04;;;;;;;40.42;8.65;;;;;;;;;;5041793;28;20394;-74
2022/04/06 02:21:30;;;;;;;35.72;7.55;;;;;;;;;;5044472;28;20033;-74
2022/04/06 02:23:56;;;;;;;37.08;8.48;;;;;;;;;;5034602;28;20029;-74
2022/04/06 02:26:22;;;;;;;33.53;8.93;;;;;;;;;;5054671;28;20119;-73
2022/04/06 02:28:48;;;;;;;30.85;7.75;;;;;;;;;;5058777;28;20029;-73
2022/04/06 02:31:14;;;;;;;26.75;6.90;;;;;;;;;;5040491;28;20029;-73
2022/04/06 02:33:40;;;;;;;31.20;8.27;;;;;;;;;;5062794;28;20043;-73
2022/04/06 02:36:06;;;;;;;24.75;6.40;;;;;;;;;;5061379;28;20127;-73
2022/04/06 02:38:38;;;;;;;29.70;7.50;;;;;;;;;;5067270;28;20090;-74
2022/04/06 02:41:04;;;;;;;29.45;6.32;;;;;;;;;;5066007;28;20446;-74
2022/04/06 02:43:30;;;;;;;38.55;6.95;;;;;;;;;;5059684;28;20379;-74
2022/04/06 02:45:56;;;;;;;20.45;6.15;;;;;;;;;;5035765;28;20025;-73
2022/04/06 02:48:22;;;;;;;33.67;7.50;;;;;;;;;;5066684;28;20033;-73
2022/04/06 02:50:48;;;;;;;27.58;6.38;;;;;;;;;;5037722;28;20041;-73
2022/04/06 02:53:14;;;;;;;21.25;6.35;;;;;;;;;;5055323;28;20128;-74
2022/04/06 02:55:40;;;;;;;23.75;6.28;;;;;;;;;;5056432;28;20040;-73
2022/04/06 02:58:06;;;;;;;29.20;6.57;;;;;;;;;;5058803;28;20036;-74
2022/04/06 03:00:32;;;;;;;21.67;5.75;;;;;;;;;;5035610;28;20119;-73
2022/04/06 03:02:59;;;;;;;23.58;5.70;;;;;;;;;;5060214;28;20037;-74
2022/04/06 03:05:25;;;;;;;26.33;5.32;;;;;;;;;;5062167;28;20075;-73
2022/04/06 03:07:51;;;;;;;22.15;5.35;;;;;;;;;;5059217;28;20036;-72
2022/04/06 03:10:18;;;;;;;22.10;5.68;;;;;;;;;;5067794;28;20035;-72
2022/04/06 03:12:44;;;;;;;19.38;4.60;;;;;;;;;;5033206;28;20033;-74
2022/04/06 03:15:10;;;;;;;18.17;5.30;;;;;;;;;;5059977;28;20020;-76
2022/04/06 03:17:36;;;;;;;23.60;5.90;;;;;;;;;;5036422;28;20126;-74
2022/04/06 03:20:03;;;;;;;16.52;4.10;;;;;;;;;;5063798;28;20088;-74
2022/04/06 03:22:29;;;;;;;16.67;4.55;;;;;;;;;;5066598;28;20043;-74
2022/04/06 03:24:55;;;;;;;26.45;4.95;;;;;;;;;;5061612;28;20029;-74
2022/04/06 03:27:21;;;;;;;17.85;4.97;;;;;;;;;;5054878;28;20055;-74
2022/04/06 03:29:48;;;;;;;18.75;5.75;;;;;;;;;;5058167;28;20036;-73
2022/04/06 03:32:14;;;;;;;15.25;4.63;;;;;;;;;;5055971;28;20036;-75
2022/04/06 03:34:40;;;;;;;20.63;4.95;;;;;;;;;;5039943;28;20453;-76
2022/04/06 03:37:06;;;;;;;17.70;4.22;;;;;;;;;;5057900;28;20037;-74
2022/04/06 03:39:33;;;;;;;16.23;4.07;;;;;;;;;;5058464;28;20037;-74
2022/04/06 03:41:59;;;;;;;15.77;4.07;;;;;;;;;;5040086;28;20032;-73
2022/04/06 03:44:25;;;;;;;10.95;2.80;;;;;;;;;;5040274;28;20038;-73
2022/04/06 03:46:52;;;;;;;13.90;3.75;;;;;;;;;;5041145;28;20025;-75
2022/04/06 03:49:18;;;;;;;15.10;3.47;;;;;;;;;;5038392;28;20036;-72
2022/04/06 03:51:44;;;;;;;19.85;3.85;;;;;;;;;;5032853;28;20037;-74
2022/04/06 03:54:10;;;;;;;11.40;3.35;;;;;;;;;;5019408;28;20025;-73
2022/04/06 03:56:38;;;;;;;19.85;3.35;;;;;;;;;;5009963;28;20029;-74
2022/04/06 03:59:04;;;;;;;10.20;2.72;;;;;;;;;;5019838;28;20049;-73
2022/04/06 04:01:31;;;;;;;17.75;3.28;;;;;;;;;;5010966;28;20048;-73
2022/04/06 04:03:57;;;;;;;13.23;2.90;;;;;;;;;;5043638;28;20037;-72
2022/04/06 04:06:23;;;;;;;18.50;4.03;;;;;;;;;;5041352;28;20541;-73
2022/04/06 04:08:49;;;;;;;15.65;2.90;;;;;;;;;;5015976;28;20036;-74
2022/04/06 04:11:16;;;;;;;16.65;3.00;;;;;;;;;;5015004;28;20044;-73
2022/04/06 04:13:42;;;;;;;14.15;3.22;;;;;;;;;;5029761;28;20029;-74
2022/04/06 04:16:08;;;;;;;12.38;2.85;;;;;;;;;;5027362;28;20542;-75
2022/04/06 04:18:35;;;;;;;14.32;3.13;;;;;;;;;;5050127;28;20040;-74
2022/04/06 04:23:46;;;;;;;11.70;3.25;;;;;;;;;;5047508;28;20099;-74
2022/04/06 04:26:12;;;;;;;12.02;2.95;;;;;;;;;;5034481;28;20443;-74
2022/04/06 04:28:38;;;;;;;14.35;3.97;;;;;;;;;;5035488;28;20064;-74
2022/04/06 04:31:04;;;;;;;10.57;2.83;;;;;;;;;;5032406;28;20029;-74
2022/04/06 04:33:31;;;;;;;12.65;2.80;;;;;;;;;;5026360;28;20124;-74
2022/04/06 04:35:57;;;;;;;10.63;2.75;;;;;;;;;;5026796;28;20071;-73
2022/04/06 04:38:23;;;;;;;21.70;3.97;;;;;;;;;;5035593;28;20402;-72
2022/04/06 04:40:49;;;;;;;20.35;3.25;;;;;;;;;;5032082;28;20057;-73
2022/04/06 04:43:15;;;;;;;19.27;4.13;;;;;;;;;;5016378;28;20471;-74
2022/04/06 04:45:41;;;;;;;17.35;4.38;;;;;;;;;;5032111;28;20030;-73
2022/04/06 04:48:07;;;;;;;23.08;4.28;;;;;;;;;;5039389;28;20074;-74
2022/04/06 04:50:33;;;;;;;19.02;3.65;;;;;;;;;;5046203;28;20178;-72
2022/04/06 04:52:59;;;;;;;17.52;3.70;;;;;;;;;;5041235;28;20485;-75
2022/04/06 04:55:25;;;;;;;16.90;4.13;;;;;;;;;;5050137;28;20040;-74
2022/04/06 04:57:51;;;;;;;18.27;4.97;;;;;;;;;;5030746;28;20044;-75
2022/04/06 05:00:17;;;;;;;24.55;5.55;;;;;;;;;;5049091;28;20043;-74
2022/04/06 05:02:43;;;;;;;14.80;3.67;;;;;;;;;;5023773;28;20034;-74
2022/04/06 05:05:11;;;;;;;20.05;3.78;;;;;;;;;;5021964;28;20105;-74
2022/04/06 05:07:37;;;;;;;21.58;3.67;;;;;;;;;;5046173;28;20021;-76
2022/04/06 05:10:07;;;;;;;19.38;4.28;;;;;;;;;;5034629;28;20111;-74
2022/04/06 05:12:33;;;;;;;16.45;4.00;;;;;;;;;;5042140;28;20026;-74
2022/04/06 05:14:59;;;;;;;18.77;3.70;;;;;;;;;;5025860;28;20032;-72
2022/04/06 05:17:26;;;;;;;14.18;3.60;;;;;;;;;;5040373;28;20087;-73
2022/04/06 05:19:52;;;;;;;18.17;3.72;;;;;;;;;;5026187;28;20025;-74
2022/04/06 05:22:18;;;;;;;17.80;3.35;;;;;;;;;;5040776;28;20033;-73
2022/04/06 05:24:44;;;;;;;20.55;4.15;;;;;;;;;;5012957;28;20051;-73
2022/04/06 05:27:10;;;;;;;16.52;3.85;;;;;;;;;;5028600;28;20026;-72
2022/04/06 05:29:36;;;;;;;16.67;3.40;;;;;;;;;;5026333;28;20033;-73
2022/04/06 05:32:02;;;;;;;12.50;2.97;;;;;;;;;;5041753;28;20055;-74
2022/04/06 05:34:29;;;;;;;20.52;4.35;;;;;;;;;;5029379;28;20048;-74
2022/04/06 05:36:55;;;;;;;21.05;4.30;;;;;;;;;;5038271;28;20098;-73
2022/04/06 05:39:21;;;;;;;19.63;4.32;;;;;;;;;;5036498;28;20580;-73
2022/04/06 05:41:49;;;;;;;15.63;3.72;;;;;;;;;;5034740;28;20037;-72
2022/04/06 05:44:15;;;;;;;21.13;5.57;;;;;;;;;;5067318;28;20023;-73
2022/04/06 05:46:41;;;;;;;29.05;5.13;;;;;;;;;;5057668;28;20111;-75
2022/04/06 05:49:07;;;;;;;19.38;4.88;;;;;;;;;;5032738;28;20075;-76
2022/04/06 05:51:34;;;;;;;20.90;4.82;;;;;;;;;;5062985;28;20039;-75
2022/04/06 05:54:00;;;;;;;24.20;5.15;;;;;;;;;;5056864;28;20291;-75
2022/04/06 05:56:26;;;;;;;18.42;5.43;;;;;;;;;;5039314;28;20497;-76
2022/04/06 05:58:52;;;;;;;22.35;4.60;;;;;;;;;;5041117;28;20111;-75
2022/04/06 06:01:19;;;;;;;21.48;5.25;;;;;;;;;;5055488;28;20163;-73
2022/04/06 06:03:45;;;;;;;16.75;4.70;;;;;;;;;;5043562;28;20497;-73
2022/04/06 06:06:11;;;;;;;19.55;5.60;;;;;;;;;;5061384;28;20036;-74
2022/04/06 06:08:37;;;;;;;16.45;4.90;;;;;;;;;;5047375;28;20482;-74
2022/04/06 06:11:04;;;;;;;26.25;6.22;;;;;;;;;;5058752;28;20108;-73
2022/04/06 06:13:31;;;;;;;20.73;5.85;;;;;;;;;;5033247;28;20505;-73
2022/04/06 06:15:57;;;;;;;25.00;5.32;;;;;;;;;;5059597;28;20025;-75
2022/04/06 06:18:24;;;;;;;18.65;5.60;;;;;;;;;;5058669;28;20083;-73
2022/04/06 06:20:50;;;;;;;20.65;4.57;;;;;;;;;;5043780;28;20051;-74
2022/04/06 06:23:16;;;;;;;22.92;4.30;;;;;;;;;;5065523;28;20020;-72
2022/04/06 06:25:42;;;;;;;21.20;4.35;;;;;;;;;;5063744;28;20512;-73
2022/04/06 06:28:08;;;;;;;21.73;4.30;;;;;;;;;;5061127;28;20037;-72
2022/04/06 06:30:34;;;;;;;30.52;4.95;;;;;;;;;;5066748;28;20028;-74
2022/04/06 06:33:00;;;;;;;24.73;4.20;;;;;;;;;;5053891;28;20031;-73
2022/04/06 06:35:26;;;;;;;21.50;3.67;;;;;;;;;;5036907;28;20120;-75
2022/04/06 06:37:53;;;;;;;14.15;3.35;;;;;;;;;;5063132;28;20037;-74
2022/04/06 06:40:20;;;;;;;18.27;3.83;;;;;;;;;;5028034;28;20084;-77
2022/04/06 06:42:47;;;;;;;17.70;3.97;;;;;;;;;;5027860;28;20090;-74
2022/04/06 06:45:13;;;;;;;20.23;3.22;;;;;;;;;;5033448;28;20360;-73
2022/04/06 06:47:42;;;;;;;20.13;4.28;;;;;;;;;;5034112;28;20453;-75
2022/04/06 06:50:08;;;;;;;26.23;3.42;;;;;;;;;;5050565;28;20073;-74
2022/04/06 06:52:35;;;;;;;13.43;3.00;;;;;;;;;;5038354;28;20106;-75
2022/04/06 06:55:05;;;;;;;12.77;2.65;;;;;;;;;;5042031;28;20040;-73
2022/04/06 06:57:31;;;;;;;13.25;2.88;;;;;;;;;;5040880;28;20041;-74
2022/04/06 06:59:57;;;;;;;13.40;2.78;;;;;;;;;;5040986;28;20257;-74
2022/04/06 07:02:23;;;;;;;11.02;2.55;;;;;;;;;;5039169;28;20109;-75
2022/04/06 07:04:49;;;;;;;14.80;2.45;;;;;;;;;;5037603;28;20033;-73
2022/04/06 07:07:16;;;;;;;19.50;3.15;;;;;;;;;;5040196;28;20498;-75
2022/04/06 07:09:42;;;;;;;11.35;2.20;;;;;;;;;;5048077;28;20037;-73
2022/04/06 07:12:08;;;;;;;12.88;2.80;;;;;;;;;;5025186;28;20221;-74
2022/04/06 07:14:34;;;;;;;13.65;2.90;;;;;;;;;;5037958;28;20037;-73
2022/04/06 07:17:00;;;;;;;18.25;2.80;;;;;;;;;;5037489;28;20036;-74
2022/04/06 07:19:27;;;;;;;17.17;3.45;;;;;;;;;;5034914;28;20053;-73
2022/04/06 07:21:53;;;;;;;19.60;3.45;;;;;;;;;;5026455;28;20473;-74
2022/04/06 07:24:19;;;;;;;13.75;2.80;;;;;;;;;;5038274;28;20026;-75
2022/04/06 07:26:45;;;;;;;18.73;4.63;;;;;;;;;;5037905;28;20056;-75
2022/04/06 07:29:13;;;;;;;17.42;3.00;;;;;;;;;;5017483;28;20192;-76
2022/04/06 07:31:39;;;;;;;15.18;3.75;;;;;;;;;;5018375;28;20716;-76
2022/04/06 07:34:05;;;;;;;13.68;2.75;;;;;;;;;;5037122;28;20251;-77
2022/04/06 07:36:35;;;;;;;21.30;5.15;;;;;;;;;;5046301;28;20112;-76
2022/04/06 07:39:02;;;;;;;19.33;3.97;;;;;;;;;;5032720;28;20029;-74
2022/04/06 07:41:28;;;;;;;24.38;4.63;;;;;;;;;;5056089;28;20371;-75
2022/04/06 07:43:55;;;;;;;20.13;5.03;;;;;;;;;;5058049;28;20116;-75
2022/04/06 07:46:22;;;;;;;17.63;4.60;;;;;;;;;;5039131;28;20033;-76
2022/04/06 07:48:48;;;;;;;17.75;3.90;;;;;;;;;;5039963;28;20036;-74
2022/04/06 07:51:14;;;;;;;25.35;3.90;;;;;;;;;;5039291;28;20108;-77
2022/04/06 07:53:40;;;;;;;18.10;3.95;;;;;;;;;;5056681;28;20029;-76
2022/04/06 07:56:06;;;;;;;19.60;4.95;;;;;;;;;;5051459;28;20037;-75
2022/04/06 07:58:34;;;;;;;24.23;5.07;;;;;;;;;;5052861;28;20033;-75
2022/04/06 08:01:01;;;;;;;18.83;4.57;;;;;;;;;;5058568;28;20025;-75
2022/04/06 08:03:27;;;;;;;24.20;4.38;;;;;;;;;;5054064;28;20037;-73
2022/04/06 08:05:53;;;;;;;18.02;5.75;;;;;;;;;;5050224;28;20020;-77
2022/04/06 08:08:19;;;;;;;20.17;5.00;;;;;;;;;;5044996;28;20033;-76
2022/04/06 08:10:46;;;;;;;24.42;5.63;;;;;;;;;;5053670;28;20078;-74
2022/04/06 08:13:12;;;;;;;24.30;5.07;;;;;;;;;;5065690;28;20028;-75
2022/04/06 08:15:38;;;;;;;22.55;4.47;;;;;;;;;;5051589;28;20327;-73
2022/04/06 08:18:04;;;;;;;19.88;5.47;;;;;;;;;;5036692;28;20039;-77
2022/04/06 08:20:30;;;;;;;18.70;4.25;;;;;;;;;;5052643;28;20098;-73
2022/04/06 08:22:56;;;;;;;21.00;4.45;;;;;;;;;;5057735;28;20088;-75
2022/04/06 08:25:22;;;;;;;20.40;4.70;;;;;;;;;;5052443;28;20079;-75
2022/04/06 08:27:48;;;;;;;21.75;6.03;;;;;;;;;;5026617;28;20060;-74
2022/04/06 08:30:16;;;;;;;16.15;4.57;;;;;;;;;;5035337;28;20142;-74
2022/04/06 08:32:43;;;;;;;23.80;4.82;;;;;;;;;;5050013;28;20052;-75
2022/04/06 08:35:09;;;;;;;22.63;4.72;;;;;;;;;;5047006;28;20029;-74
2022/04/06 08:37:36;;;;;;;20.85;4.75;;;;;;;;;;5054056;28;20108;-74
2022/04/06 08:40:03;;;;;;;23.25;6.30;;;;;;;;;;5065029;28;20075;-76
2022/04/06 08:42:33;;;;;;;16.92;5.03;;;;;;;;;;5031139;28;20085;-74
2022/04/06 08:45:02;;;;;;;20.90;5.25;;;;;;;;;;5049086;28;20120;-75
2022/04/06 08:47:31;;;;;;;25.90;5.50;;;;;;;;;;5048735;28;20036;-77
2022/04/06 08:49:58;;;;;;;20.70;5.53;;;;;;;;;;5057518;28;20029;-75
2022/04/06 08:52:24;;;;;;;27.08;6.80;;;;;;;;;;5040408;28;20120;-76
2022/04/06 08:54:50;;;;;;;29.08;6.60;;;;;;;;;;5051728;28;20029;-75
2022/04/06 08:57:17;;;;;;;25.60;7.70;;;;;;;;;;5038413;28;20595;-75
2022/04/06 08:59:43;;;;;;;23.55;7.75;;;;;;;;;;5033327;28;20470;-77
2022/04/06 09:02:10;;;;;;;28.08;8.65;;;;;;;;;;5055534;28;20035;-75
2022/04/06 09:04:39;;;;;;;32.58;8.70;;;;;;;;;;5040568;28;20106;-75
2022/04/06 09:07:09;;;;;;;28.42;8.30;;;;;;;;;;5055566;28;20108;-75
2022/04/06 09:09:35;;;;;;;21.80;8.93;;;;;;;;;;5062619;28;20025;-78
2022/04/06 09:12:06;;;;;;;25.77;9.98;;;;;;;;;;5058382;28;20082;-75
2022/04/06 09:14:33;;;;;;;21.80;8.50;;;;;;;;;;5062390;28;20153;-74
2022/04/06 09:17:06;;;;;;;28.00;9.70;;;;;;;;;;5074467;28;20397;-74
2022/04/06 09:19:36;;;;;;;26.23;10.15;;;;;;;;;;5061250;28;20029;-75
2022/04/06 09:22:05;;;;;;;28.17;9.40;;;;;;;;;;5058230;28;20377;-74
2022/04/06 09:24:35;;;;;;;31.63;11.05;;;;;;;;;;5064594;28;20598;-75
2022/04/06 09:27:02;;;;;;;24.52;10.02;;;;;;;;;;5057178;28;20025;-75
2022/04/06 09:29:29;;;;;;;26.58;10.68;;;;;;;;;;5040828;28;20171;-74
2022/04/06 09:31:55;;;;;;;20.27;10.20;;;;;;;;;;5053293;28;20021;-73
2022/04/06 09:34:22;;;;;;;28.45;10.82;;;;;;;;;;5066630;28;20040;-75
2022/04/06 09:36:50;;;;;;;23.55;9.98;;;;;;;;;;5033019;28;20036;-75
2022/04/06 09:39:17;;;;;;;27.85;11.65;;;;;;;;;;5053303;28;20122;-74
2022/04/06 09:42:02;;;;;;;23.92;10.07;;;;;;;;;;5042515;28;20055;-74
2022/04/06 09:50:27;;;;;;;24.67;11.23;;;;;;;;;;5068265;28;20059;-75
2022/04/06 09:52:56;;;;;;;26.48;12.55;;;;;;;;;;5041432;28;20036;-74
2022/04/06 09:55:23;;;;;;;27.52;11.55;;;;;;;;;;5064644;28;20066;-74
2022/04/06 09:57:52;;;;;;;27.58;12.60;;;;;;;;;;5036124;28;20021;-73
2022/04/06 10:00:19;;;;;;;34.38;12.82;;;;;;;;;;5051513;28;20039;-74
2022/04/06 10:02:46;;;;;;;29.10;12.93;;;;;;;;;;5058703;28;20031;-74
2022/04/06 10:05:13;;;;;;;33.05;12.80;;;;;;;;;;5058424;28;20042;-74
2022/04/06 10:07:43;;;;;;;36.20;13.77;;;;;;;;;;5053991;28;20036;-74
2022/04/06 10:10:09;;;;;;;35.00;13.50;;;;;;;;;;5053176;28;20044;-74
2022/04/06 10:12:36;;;;;;;28.88;12.15;;;;;;;;;;5046165;28;20029;-74
2022/04/06 10:15:02;;;;;;;24.27;11.30;;;;;;;;;;5067008;28;20461;-74
2022/04/06 10:17:29;;;;;;;30.33;12.13;;;;;;;;;;5053351;28;20139;-75
2022/04/06 10:20:18;;;;;;;26.50;11.38;;;;;;;;;;5040088;28;20601;-75
2022/04/06 10:23:04;;;;;;;26.60;11.02;;;;;;;;;;5055200;28;20029;-74
2022/04/06 10:25:43;;;;;;;28.38;10.38;;;;;;;;;;5030726;28;20098;-75
2022/04/06 10:28:12;;;;;;;19.38;8.82;;;;;;;;;;5059312;28;20195;-75
2022/04/06 10:30:38;;;;;;;17.05;9.15;;;;;;;;;;5058133;28;20111;-74
2022/04/06 10:33:21;;;;;;;26.02;9.23;;;;;;;;;;5056869;28;20441;-73
2022/04/06 10:35:47;;;;;;;24.75;8.73;;;;;;;;;;5037078;28;20223;-73
2022/04/06 10:38:14;;;;;;;16.77;8.32;;;;;;;;;;5060307;28;20163;-74
2022/04/06 10:40:47;;;;;;;29.35;10.13;;;;;;;;;;5057529;28;20383;-75
2022/04/06 10:43:32;;;;;;;26.70;9.05;;;;;;;;;;5018213;28;20025;-74
2022/04/06 10:45:58;;;;;;;26.05;8.98;;;;;;;;;;5031651;28;20032;-74
2022/04/06 10:48:25;;;;;;;20.42;9.93;;;;;;;;;;5033581;28;20080;-74
2022/04/06 10:50:51;;;;;;;25.33;9.77;;;;;;;;;;5031004;28;20136;-73
2022/04/06 10:53:20;;;;;;;24.73;9.82;;;;;;;;;;5037617;28;20143;-75
2022/04/06 10:56:01;;;;;;;29.95;11.77;;;;;;;;;;5040030;28;20075;-75
2022/04/06 10:58:27;;;;;;;33.05;11.68;;;;;;;;;;5033316;28;20043;-75
2022/04/06 11:01:11;;;;;;;26.65;11.65;;;;;;;;;;5029978;28;20522;-73
2022/04/06 11:03:41;;;;;;;20.65;9.80;;;;;;;;;;5039955;28;20025;-73
2022/04/06 11:06:07;;;;;;;25.75;9.73;;;;;;;;;;5014563;28;20123;-74
2022/04/06 11:11:43;;;;;;;19.70;8.32;;;;;;;;;;5035615;28;20040;-74
2022/04/06 11:14:09;;;;;;;21.98;9.23;;;;;;;;;;5020559;28;20537;-73
2022/04/06 11:16:45;;;;;;;17.70;8.50;;;;;;;;;;5040182;28;20064;-74
2022/04/06 11:19:11;;;;;;;17.42;8.32;;;;;;;;;;5050976;28;20075;-73
2022/04/06 11:21:54;;;;;;;23.40;8.75;;;;;;;;;;5020312;28;20034;-75
2022/04/06 11:24:24;;;;;;;25.20;8.70;;;;;;;;;;5037890;28;20054;-74
2022/04/06 11:26:51;;;;;;;18.23;7.72;;;;;;;;;;5026368;28;20028;-75
2022/04/06 11:29:18;;;;;;;23.80;7.82;;;;;;;;;;5019061;28;20029;-75
2022/04/06 11:31:54;;;;;;;25.67;8.52;;;;;;;;;;5038148;28;20095;-77
2022/04/06 11:34:35;;;;;;;19.67;8.00;;;;;;;;;;5012437;28;20037;-75
2022/04/06 11:37:02;;;;;;;20.40;8.55;;;;;;;;;;5031411;28;20060;-77
2022/04/06 11:39:30;;;;;;;22.30;8.90;;;;;;;;;;5038979;28;20491;-76
2022/04/06 11:41:58;;;;;;;17.63;9.02;;;;;;;;;;5017012;28;20136;-76
2022/04/06 11:44:26;;;;;;;18.75;7.80;;;;;;;;;;5001661;28;20064;-75
2022/04/06 11:46:52;;;;;;;16.33;8.30;;;;;;;;;;5032090;28;20032;-75
2022/04/06 11:49:24;;;;;;;22.70;8.55;;;;;;;;;;5016424;28;20033;-75
2022/04/06 11:51:50;;;;;;;21.95;10.25;;;;;;;;;;5037215;28;20585;-78
2022/04/06 11:54:17;;;;;;;18.23;9.27;;;;;;;;;;5031283;28;20109;-75
2022/04/06 11:56:43;;;;;;;20.77;9.68;;;;;;;;;;5020949;28;20024;-76
2022/04/06 11:59:16;;;;;;;23.58;9.95;;;;;;;;;;5041390;28;20036;-76
2022/04/06 12:01:43;;;;;;;21.15;9.40;;;;;;;;;;5017638;28;20064;-77
2022/04/06 12:04:16;;;;;;;16.92;8.85;;;;;;;;;;5035083;28;20558;-75
2022/04/06 12:06:42;;;;;;;15.43;8.90;;;;;;;;;;5030004;28;20040;-75
2022/04/06 12:09:08;;;;;;;19.52;9.88;;;;;;;;;;5049723;28;20084;-76
2022/04/06 12:11:35;;;;;;;25.80;11.20;;;;;;;;;;5022128;28;20106;-75
2022/04/06 12:14:01;;;;;;;23.75;10.40;;;;;;;;;;5053001;28;20106;-76
2022/04/06 12:16:28;;;;;;;20.73;9.55;;;;;;;;;;5041606;28;20135;-77
2022/04/06 12:18:54;;;;;;;16.90;8.35;;;;;;;;;;5030749;28;20122;-77
2022/04/06 12:21:24;;;;;;;16.30;9.18;;;;;;;;;;5032299;28;20049;-76
2022/04/06 12:23:51;;;;;;;13.93;7.45;;;;;;;;;;5013766;28;20025;-76
2022/04/06 12:26:18;;;;;;;19.85;7.70;;;;;;;;;;5018244;28;20104;-75
2022/04/06 12:28:48;;;;;;;23.38;8.70;;;;;;;;;;5019884;28;20112;-76
2022/04/06 12:31:14;;;;;;;19.92;9.98;;;;;;;;;;5047328;28;20116;-76
2022/04/06 12:33:50;;;;;;;21.40;9.52;;;;;;;;;;5031665;28;20041;-75
2022/04/06 12:36:19;;;;;;;16.67;9.02;;;;;;;;;;5018096;28;20564;-77
2022/04/06 12:38:59;;;;;;;16.38;9.85;;;;;;;;;;5010988;28;20060;-76
2022/04/06 12:41:26;;;;;;;18.40;9.88;;;;;;;;;;5043420;28;20041;-75
2022/04/06 12:43:53;;;;;;;15.20;8.85;;;;;;;;;;5058038;28;20045;-75
2022/04/06 12:46:38;;;;;;;20.17;9.43;;;;;;;;;;5060905;28;20029;-75
2022/04/06 12:49:17;;;;;;;16.60;9.25;;;;;;;;;;5064514;28;20033;-76
2022/04/06 12:51:43;;;;;;;19.48;9.40;;;;;;;;;;5053976;28;20040;-77
2022/04/06 12:54:09;;;;;;;14.57;8.50;;;;;;;;;;5035010;28;20040;-77
2022/04/06 12:56:35;;;;;;;15.93;8.20;;;;;;;;;;5031485;28;20104;-75
2022/04/06 12:59:08;;;;;;;17.52;9.30;;;;;;;;;;5059448;28;20040;-76
2022/04/06 13:01:34;;;;;;;15.65;8.40;;;;;;;;;;5036720;28;20035;-76
2022/04/06 13:04:00;;;;;;;15.20;7.38;;;;;;;;;;5049479;28;20104;-75
2022/04/06 13:06:26;;;;;;;19.58;9.80;;;;;;;;;;5031831;28;20044;-76
2022/04/06 13:08:53;;;;;;;21.00;8.43;;;;;;;;;;5033052;28;20061;-77
2022/04/06 13:11:19;;;;;;;19.50;9.25;;;;;;;;;;5037746;28;20037;-76
2022/04/06 13:13:45;;;;;;;19.75;8.90;;;;;;;;;;5041972;28;20362;-77
2022/04/06 13:16:11;;;;;;;13.70;7.55;;;;;;;;;;5050161;28;20047;-75
2022/04/06 13:18:37;;;;;;;17.15;7.15;;;;;;;;;;5040481;28;20069;-76
2022/04/06 13:21:03;;;;;;;13.50;6.20;;;;;;;;;;5058441;28;20456;-75
2022/04/06 13:23:29;;;;;;;18.40;7.80;;;;;;;;;;5053140;28;20044;-75
2022/04/06 13:25:55;;;;;;;21.17;7.07;;;;;;;;;;5059416;28;20517;-74
2022/04/06 13:28:21;;;;;;;12.70;6.57;;;;;;;;;;5039551;28;20032;-75
2022/04/06 13:30:47;;;;;;;16.55;6.60;;;;;;;;;;5056043;28;20021;-75
2022/04/06 13:33:13;;;;;;;13.55;6.57;;;;;;;;;;5040935;28;20024;-76
2022/04/06 13:35:39;;;;;;;12.68;5.90;;;;;;;;;;5058092;28;20021;-75
2022/04/06 13:38:06;;;;;;;13.30;7.35;;;;;;;;;;5056545;28;20032;-74
2022/04/06 13:40:33;;;;;;;12.50;7.03;;;;;;;;;;5059718;28;20049;-75
2022/04/06 13:42:59;;;;;;;15.05;7.40;;;;;;;;;;5055959;28;20701;-75
2022/04/06 13:45:26;;;;;;;16.40;8.07;;;;;;;;;;5040080;28;20036;-75
2022/04/06 13:47:52;;;;;;;11.02;8.00;;;;;;;;;;5061541;28;20036;-74
2022/04/06 13:50:20;;;;;;;14.98;8.98;;;;;;;;;;5063943;28;20032;-74
2022/04/06 13:52:47;;;;;;;11.70;8.27;;;;;;;;;;5052258;28;20029;-75
2022/04/06 13:55:17;;;;;;;13.90;8.63;;;;;;;;;;5035423;28;20048;-74
2022/04/06 13:57:44;;;;;;;17.58;8.93;;;;;;;;;;5041620;28;20032;-77
2022/04/06 14:00:10;;;;;;;16.52;8.45;;;;;;;;;;5066442;28;20040;-75
2022/04/06 14:02:36;;;;;;;13.45;8.48;;;;;;;;;;5035117;28;20029;-75
2022/04/06 14:05:04;;;;;;;18.73;10.30;;;;;;;;;;5059152;28;20036;-75
2022/04/06 14:07:29;;;;;;;17.38;8.88;;;;;;;;;;5060731;28;20032;-75
2022/04/06 14:09:55;;;;;;;16.58;7.63;;;;;;;;;;5063612;28;20028;-75
2022/04/06 14:12:22;;;;;;;14.20;9.10;;;;;;;;;;5067082;28;20047;-76
2022/04/06 14:14:48;;;;;;;27.83;10.40;;;;;;;;;;5062727;28;20040;-74
2022/04/06 14:17:14;;;;;;;14.90;9.85;;;;;;;;;;5060865;28;20028;-74
2022/04/06 14:19:40;;;;;;;18.92;10.68;;;;;;;;;;5064679;28;20033;-75
2022/04/06 14:22:07;;;;;;;19.73;10.18;;;;;;;;;;5056534;28;20029;-74
2022/04/06 14:24:33;;;;;;;16.98;10.23;;;;;;;;;;5058860;28;20033;-74
2022/04/06 14:26:59;;;;;;;14.52;8.77;;;;;;;;;;5054812;28;20035;-75
2022/04/06 14:29:25;;;;;;;19.65;9.18;;;;;;;;;;5056321;28;20029;-75
2022/04/06 14:31:52;;;;;;;14.82;7.93;;;;;;;;;;5036253;28;20193;-75
2022/04/06 14:34:18;;;;;;;18.98;9.13;;;;;;;;;;5032774;28;20433;-74
2022/04/06 14:36:45;;;;;;;22.00;8.95;;;;;;;;;;5055068;28;20040;-76
2022/04/06 14:39:11;;;;;;;14.32;8.35;;;;;;;;;;5060680;28;20530;-76
2022/04/06 14:41:38;;;;;;;16.77;7.10;;;;;;;;;;5057457;28;20107;-76